createdAt,value
2017-12-12T00:02:15.278Z,4.00
2017-12-12T00:04:43.567Z,4.45
2017-12-12T00:07:14.756Z,3.75
2017-12-12T00:09:43.049Z,4.40
2017-12-12T00:12:14.904Z,5.30
2017-12-12T00:14:43.151Z,4.97
2017-12-12T00:17:14.849Z,4.95
2017-12-12T00:19:43.104Z,5.05
2017-12-12T00:22:15.761Z,5.10
2017-12-12T00:24:44.021Z,4.95
2017-12-12T00:27:15.840Z,5.47
2017-12-12T00:29:44.264Z,5.03
2017-12-12T00:32:16.225Z,5.40
2017-12-12T00:34:44.510Z,5.85
2017-12-12T00:37:15.743Z,6.70
2017-12-12T00:39:44.146Z,6.18
2017-12-12T00:42:16.311Z,6.20
2017-12-12T00:44:44.557Z,6.30
2017-12-12T00:47:14.573Z,6.35
2017-12-12T00:49:43.568Z,6.50
2017-12-12T00:52:15.400Z,6.47
2017-12-12T00:54:43.664Z,6.72
2017-12-12T00:57:14.869Z,6.85
2017-12-12T00:59:43.154Z,7.15
2017-12-12T01:02:14.986Z,6.87
2017-12-12T01:04:43.245Z,7.57
2017-12-12T01:07:15.940Z,6.93
2017-12-12T01:09:44.201Z,6.82
2017-12-12T01:12:15.730Z,7.78
2017-12-12T01:14:43.989Z,8.35
2017-12-12T01:17:15.388Z,8.77
2017-12-12T01:19:43.686Z,9.80
2017-12-12T01:22:15.522Z,9.90
2017-12-12T01:24:43.757Z,10.05
2017-12-12T01:27:14.607Z,10.18
2017-12-12T01:29:42.904Z,10.23
2017-12-12T01:32:14.577Z,10.50
2017-12-12T01:34:42.845Z,10.00
2017-12-12T01:37:14.418Z,10.32
2017-12-12T01:39:42.722Z,11.07
2017-12-12T01:42:14.490Z,10.38
2017-12-12T01:44:42.749Z,10.35
2017-12-12T01:47:14.271Z,9.98
2017-12-12T01:49:42.529Z,9.68
2017-12-12T01:52:13.972Z,9.75
2017-12-12T01:54:42.259Z,10.38
2017-12-12T01:57:16.917Z,8.70
2017-12-12T01:59:45.201Z,9.48
2017-12-12T02:02:15.170Z,9.90
2017-12-12T02:04:43.588Z,9.82
2017-12-12T02:07:15.721Z,9.68
2017-12-12T02:09:43.997Z,9.77
2017-12-12T02:12:15.264Z,8.32
2017-12-12T02:14:44.283Z,10.20
2017-12-12T02:17:15.680Z,9.85
2017-12-12T02:19:44.308Z,9.40
2017-12-12T02:22:16.339Z,9.50
2017-12-12T02:24:44.618Z,8.73
2017-12-12T02:27:15.974Z,9.95
2017-12-12T02:29:44.248Z,9.38
2017-12-12T02:32:16.175Z,9.35
2017-12-12T02:34:44.449Z,9.20
2017-12-12T02:37:16.876Z,10.95
2017-12-12T02:39:45.161Z,9.68
2017-12-12T02:42:15.272Z,8.82
2017-12-12T02:44:43.549Z,9.73
2017-12-12T02:47:15.696Z,9.85
2017-12-12T02:49:43.966Z,9.40
2017-12-12T02:52:16.086Z,10.75
2017-12-12T02:54:44.453Z,9.30
2017-12-12T02:57:15.756Z,9.43
2017-12-12T02:59:44.616Z,9.73
2017-12-12T03:02:16.028Z,8.23
2017-12-12T03:04:44.482Z,9.77
2017-12-12T03:07:17.008Z,9.02
2017-12-12T03:09:45.552Z,10.07
2017-12-12T03:12:14.851Z,8.05
2017-12-12T03:14:43.126Z,9.40
2017-12-12T03:17:18.233Z,9.60
2017-12-12T03:19:46.514Z,9.77
2017-12-12T03:22:14.790Z,8.15
2017-12-12T03:24:43.070Z,9.00
2017-12-12T03:27:18.210Z,10.00
2017-12-12T03:29:46.847Z,9.23
2017-12-12T03:32:15.669Z,9.68
2017-12-12T03:34:43.960Z,9.18
2017-12-12T03:37:14.790Z,8.30
2017-12-12T03:39:43.066Z,9.48
2017-12-12T03:42:18.300Z,9.38
2017-12-12T03:44:46.562Z,8.98
2017-12-12T03:47:14.854Z,8.07
2017-12-12T03:49:43.152Z,8.50
2017-12-12T03:52:18.806Z,8.52
2017-12-12T03:54:47.157Z,8.45
2017-12-12T03:57:15.413Z,8.55
2017-12-12T03:59:43.682Z,8.07
2017-12-12T04:02:14.675Z,7.68
2017-12-12T04:04:42.953Z,9.20
2017-12-12T04:07:14.660Z,8.75
2017-12-12T04:09:43.169Z,8.02
2017-12-12T04:12:14.586Z,8.63
2017-12-12T04:14:43.094Z,8.57
2017-12-12T04:17:18.256Z,7.82
2017-12-12T04:19:46.520Z,9.57
2017-12-12T04:22:14.809Z,9.48
2017-12-12T04:24:43.435Z,9.55
2017-12-12T04:27:15.701Z,10.65
2017-12-12T04:29:44.008Z,10.70
2017-12-12T04:32:15.496Z,10.38
2017-12-12T04:34:44.044Z,9.27
2017-12-12T04:37:15.819Z,10.90
2017-12-12T04:39:44.104Z,11.00
2017-12-12T04:42:16.141Z,11.12
2017-12-12T04:44:44.420Z,9.95
2017-12-12T04:47:15.844Z,10.93
2017-12-12T04:49:44.155Z,12.60
2017-12-12T04:52:15.474Z,11.50
2017-12-12T04:54:43.849Z,11.93
2017-12-12T04:57:15.259Z,10.85
2017-12-12T04:59:43.705Z,11.60
2017-12-12T05:02:14.709Z,12.32
2017-12-12T05:04:42.990Z,11.75
2017-12-12T05:07:14.844Z,10.32
2017-12-12T05:09:43.118Z,10.35
2017-12-12T05:12:14.768Z,9.90
2017-12-12T05:14:43.056Z,9.73
2017-12-12T05:17:18.497Z,9.60
2017-12-12T05:19:46.804Z,8.75
2017-12-12T05:22:15.101Z,8.60
2017-12-12T05:24:43.622Z,8.18
2017-12-12T05:27:14.936Z,8.40
2017-12-12T05:29:43.209Z,8.02
2017-12-12T05:32:14.536Z,8.50
2017-12-12T05:34:43.692Z,7.40
2017-12-12T05:37:15.804Z,7.15
2017-12-12T05:39:44.162Z,8.18
2017-12-12T05:42:15.333Z,7.47
2017-12-12T05:44:43.627Z,8.07
2017-12-12T05:47:15.079Z,7.97
2017-12-12T05:49:43.313Z,7.95
2017-12-12T05:52:17.326Z,7.25
2017-12-12T05:54:45.625Z,6.78
2017-12-12T05:57:14.941Z,7.20
2017-12-12T05:59:43.600Z,7.20
2017-12-12T06:02:15.718Z,6.80
2017-12-12T06:04:43.994Z,6.95
2017-12-12T06:07:14.745Z,6.87
2017-12-12T06:09:43.031Z,6.28
2017-12-12T06:12:18.273Z,6.82
2017-12-12T06:14:46.658Z,6.85
2017-12-12T06:17:15.341Z,6.75
2017-12-12T06:19:43.605Z,6.60
2017-12-12T06:22:15.066Z,6.55
2017-12-12T06:24:43.309Z,6.93
2017-12-12T06:27:15.455Z,6.65
2017-12-12T06:29:43.848Z,6.15
2017-12-12T06:32:15.648Z,6.03
2017-12-12T06:34:43.941Z,6.70
2017-12-12T06:37:15.008Z,6.57
2017-12-12T06:39:43.260Z,7.10
2017-12-12T06:42:14.585Z,6.47
2017-12-12T06:44:42.865Z,6.05
2017-12-12T06:47:14.161Z,6.57
2017-12-12T06:49:42.727Z,6.25
2017-12-12T06:52:17.629Z,6.40
2017-12-12T06:54:45.916Z,6.05
2017-12-12T06:57:15.008Z,5.62
2017-12-12T06:59:43.533Z,5.87
2017-12-12T07:02:14.734Z,6.25
2017-12-12T07:04:43.206Z,5.40
2017-12-12T07:07:18.512Z,6.20
2017-12-12T07:09:46.806Z,5.55
2017-12-12T07:12:15.108Z,5.28
2017-12-12T07:14:43.374Z,5.62
2017-12-12T07:17:14.910Z,5.62
2017-12-12T07:19:43.187Z,6.03
2017-12-12T07:22:18.197Z,5.18
2017-12-12T07:24:46.492Z,5.40
2017-12-12T07:27:14.764Z,6.93
2017-12-12T07:29:43.066Z,5.35
2017-12-12T07:32:16.176Z,5.60
2017-12-12T07:34:44.466Z,5.28
2017-12-12T07:37:16.398Z,5.68
2017-12-12T07:39:44.672Z,5.43
2017-12-12T07:42:16.027Z,5.90
2017-12-12T07:44:44.286Z,6.30
2017-12-12T07:47:15.506Z,5.87
2017-12-12T07:49:43.765Z,6.12
2017-12-12T07:52:14.721Z,6.03
2017-12-12T07:54:43.009Z,6.45
2017-12-12T07:57:14.561Z,6.20
2017-12-12T07:59:42.983Z,6.05
2017-12-12T08:02:14.411Z,6.97
2017-12-12T08:04:43.092Z,6.00
2017-12-12T08:07:14.900Z,6.00
2017-12-12T08:09:43.476Z,6.22
2017-12-12T08:12:15.520Z,6.87
2017-12-12T08:14:44.201Z,6.35
2017-12-12T08:17:16.052Z,6.07
2017-12-12T08:19:44.322Z,5.65
2017-12-12T08:22:16.513Z,6.78
2017-12-12T08:24:44.808Z,6.62
2017-12-12T08:27:17.925Z,6.50
2017-12-12T08:29:46.208Z,6.65
2017-12-12T08:32:15.442Z,6.32
2017-12-12T08:34:43.729Z,6.85
2017-12-12T08:37:14.752Z,6.18
2017-12-12T08:39:43.054Z,6.10
2017-12-12T08:42:15.929Z,6.43
2017-12-12T08:44:44.204Z,6.50
2017-12-12T08:47:15.520Z,6.57
2017-12-12T08:49:43.817Z,6.20
2017-12-12T08:52:14.733Z,6.10
2017-12-12T08:54:43.011Z,5.28
2017-12-12T08:57:14.490Z,5.87
2017-12-12T08:59:42.762Z,5.45
2017-12-12T09:02:17.769Z,4.90
2017-12-12T09:04:46.038Z,5.68
2017-12-12T09:07:15.565Z,5.57
2017-12-12T09:09:43.829Z,5.43
2017-12-12T09:12:15.047Z,5.12
2017-12-12T09:14:43.323Z,6.05
2017-12-12T09:17:15.688Z,6.20
2017-12-12T09:19:43.987Z,6.20
2017-12-12T09:22:15.918Z,5.20
2017-12-12T09:24:44.184Z,5.05
2017-12-12T09:27:16.304Z,5.68
2017-12-12T09:32:21.533Z,5.95
2017-12-12T09:34:49.893Z,5.70
2017-12-12T09:37:18.313Z,5.75
2017-12-12T09:39:47.012Z,5.87
2017-12-12T09:42:15.286Z,5.78
2017-12-12T09:44:43.552Z,5.82
2017-12-12T09:47:15.251Z,5.70
2017-12-12T09:49:43.545Z,5.87
2017-12-12T09:52:14.823Z,5.35
2017-12-12T09:54:43.126Z,6.00
2017-12-12T09:57:18.050Z,5.60
2017-12-12T09:59:46.617Z,5.57
2017-12-12T10:02:14.890Z,5.68
2017-12-12T10:04:43.177Z,5.53
2017-12-12T10:07:14.593Z,6.00
2017-12-12T10:09:42.860Z,5.30
2017-12-12T10:12:14.486Z,5.90
2017-12-12T10:14:42.718Z,5.55
2017-12-12T10:17:14.560Z,5.57
2017-12-12T10:19:43.650Z,5.28
2017-12-12T10:22:15.573Z,5.05
2017-12-12T10:24:44.005Z,4.97
2017-12-12T10:27:16.209Z,4.97
2017-12-12T10:29:44.474Z,4.93
2017-12-12T10:32:16.438Z,5.30
2017-12-12T10:34:44.717Z,5.35
2017-12-12T10:37:14.903Z,4.97
2017-12-12T10:39:43.160Z,4.50
2017-12-12T10:42:20.490Z,4.40
2017-12-12T10:44:48.773Z,4.17
2017-12-12T10:47:17.718Z,4.20
2017-12-12T10:49:46.010Z,4.13
2017-12-12T10:52:16.237Z,3.80
2017-12-12T10:54:44.512Z,4.17
2017-12-12T10:57:16.612Z,4.00
2017-12-12T10:59:44.906Z,3.80
2017-12-12T11:02:14.950Z,3.90
2017-12-12T11:04:43.234Z,3.40
2017-12-12T11:07:18.281Z,3.40
2017-12-12T11:09:46.633Z,3.20
2017-12-12T11:12:14.995Z,3.20
2017-12-12T11:14:43.271Z,3.40
2017-12-12T11:17:14.647Z,3.60
2017-12-12T11:19:42.916Z,3.30
2017-12-12T11:22:14.486Z,3.60
2017-12-12T11:24:42.772Z,3.65
2017-12-12T11:27:19.873Z,3.50
2017-12-12T11:29:48.140Z,3.37
2017-12-12T11:32:16.417Z,3.00
2017-12-12T11:34:44.701Z,2.80
2017-12-12T11:37:16.744Z,3.40
2017-12-12T11:39:45.181Z,3.13
2017-12-12T11:42:15.633Z,3.03
2017-12-12T11:44:43.929Z,3.30
2017-12-12T11:47:16.042Z,3.50
2017-12-12T11:49:44.345Z,3.60
2017-12-12T11:52:16.461Z,3.80
2017-12-12T11:54:44.759Z,3.60
2017-12-12T11:57:14.750Z,3.90
2017-12-12T11:59:43.281Z,3.45
2017-12-12T12:02:18.501Z,3.20
2017-12-12T12:04:47.003Z,3.07
2017-12-12T12:07:15.762Z,3.40
2017-12-12T12:09:44.026Z,3.50
2017-12-12T12:12:16.040Z,3.60
2017-12-12T12:14:44.362Z,3.40
2017-12-12T12:17:16.329Z,3.90
2017-12-12T12:19:44.635Z,3.10
2017-12-12T12:22:16.670Z,3.55
2017-12-12T12:24:44.949Z,4.18
2017-12-12T12:27:14.909Z,3.60
2017-12-12T12:29:43.193Z,3.00
2017-12-12T12:32:18.766Z,2.95
2017-12-12T12:34:47.040Z,3.40
2017-12-12T12:37:15.385Z,3.20
2017-12-12T12:39:43.913Z,3.40
2017-12-12T12:42:15.574Z,3.03
2017-12-12T12:44:43.853Z,3.15
2017-12-12T12:47:15.161Z,3.53
2017-12-12T12:49:43.436Z,3.25
2017-12-12T12:52:15.934Z,2.92
2017-12-12T12:54:44.198Z,2.80
2017-12-12T12:57:16.208Z,3.10
2017-12-12T12:59:44.522Z,2.90
2017-12-12T13:02:16.539Z,2.83
2017-12-12T13:04:44.824Z,2.40
2017-12-12T13:07:14.729Z,2.50
2017-12-12T13:09:43.004Z,2.43
2017-12-12T13:12:14.455Z,2.00
2017-12-12T13:14:42.807Z,2.00
2017-12-12T13:17:17.768Z,2.20
2017-12-12T13:19:46.057Z,2.10
2017-12-12T13:22:14.865Z,2.23
2017-12-12T13:24:43.136Z,2.10
2017-12-12T13:27:14.664Z,2.43
2017-12-12T13:29:43.179Z,2.03
2017-12-12T13:32:14.900Z,2.30
2017-12-12T13:34:43.170Z,2.17
2017-12-12T13:37:15.321Z,2.50
2017-12-12T13:39:43.716Z,2.33
2017-12-12T13:42:15.975Z,1.97
2017-12-12T13:44:44.758Z,2.27
2017-12-12T13:47:16.069Z,2.30
2017-12-12T13:49:44.388Z,2.55
2017-12-12T13:52:16.390Z,2.80
2017-12-12T13:54:44.955Z,2.90
2017-12-12T13:57:14.783Z,2.15
2017-12-12T13:59:43.074Z,2.30
2017-12-12T14:02:14.485Z,2.22
2017-12-12T14:04:43.104Z,2.33
2017-12-12T14:07:14.921Z,2.33
2017-12-12T14:09:43.230Z,2.12
2017-12-12T14:12:15.163Z,2.10
2017-12-12T14:14:43.465Z,1.58
2017-12-12T14:17:14.686Z,2.22
2017-12-12T14:19:42.989Z,2.40
2017-12-12T14:22:14.999Z,2.40
2017-12-12T14:24:43.321Z,2.00
2017-12-12T14:27:15.332Z,1.95
2017-12-12T14:29:43.619Z,2.40
2017-12-12T14:32:16.185Z,2.08
2017-12-12T14:34:44.485Z,1.95
2017-12-12T14:37:14.478Z,2.30
2017-12-12T14:39:42.753Z,3.12
2017-12-12T14:42:14.880Z,2.50
2017-12-12T14:44:43.150Z,2.30
2017-12-12T14:47:13.876Z,2.30
2017-12-12T14:49:42.152Z,2.67
2017-12-12T14:52:13.649Z,2.15
2017-12-12T14:54:41.927Z,2.20
2017-12-12T14:57:13.229Z,2.10
2017-12-12T14:59:41.513Z,2.10
2017-12-12T15:02:16.309Z,2.65
2017-12-12T15:04:44.572Z,2.45
2017-12-12T15:07:14.183Z,2.55
2017-12-12T15:09:42.484Z,2.58
2017-12-12T15:12:14.488Z,2.00
2017-12-12T15:14:42.768Z,3.50
2017-12-12T15:17:14.893Z,2.20
2017-12-12T15:19:43.192Z,2.17
2017-12-12T15:22:15.311Z,3.78
2017-12-12T15:24:43.621Z,2.87
2017-12-12T15:27:14.957Z,2.83
2017-12-12T15:29:43.258Z,2.42
2017-12-12T15:32:15.478Z,2.28
2017-12-12T15:34:43.851Z,2.83
2017-12-12T15:37:13.792Z,2.67
2017-12-12T15:39:42.086Z,2.87
2017-12-12T15:42:13.420Z,3.22
2017-12-12T15:44:42.056Z,2.87
2017-12-12T15:47:14.029Z,3.60
2017-12-12T15:49:42.526Z,2.72
2017-12-12T15:52:14.701Z,3.40
2017-12-12T15:54:42.946Z,4.75
2017-12-12T15:57:14.879Z,4.37
2017-12-12T15:59:43.157Z,4.28
2017-12-12T16:02:14.565Z,4.30
2017-12-12T16:04:42.834Z,3.80
2017-12-12T16:07:14.961Z,5.12
2017-12-12T16:09:43.265Z,4.28
2017-12-12T16:12:15.201Z,4.40
2017-12-12T16:14:43.498Z,4.90
2017-12-12T16:17:15.673Z,9.60
2017-12-12T16:19:43.973Z,11.77
2017-12-12T16:22:13.989Z,5.90
2017-12-12T16:24:42.263Z,3.33
2017-12-12T16:27:17.299Z,8.30
2017-12-12T16:29:45.595Z,7.45
2017-12-12T16:32:14.065Z,4.87
2017-12-12T16:34:42.385Z,3.97
2017-12-12T16:37:16.356Z,5.47
2017-12-12T16:39:44.913Z,4.10
2017-12-12T16:42:13.897Z,4.20
2017-12-12T16:44:42.357Z,5.70
2017-12-12T16:47:17.416Z,6.57
2017-12-12T16:49:45.701Z,5.10
2017-12-12T16:52:13.991Z,5.20
2017-12-12T16:54:42.337Z,5.50
2017-12-12T16:57:17.641Z,5.35
2017-12-12T16:59:45.893Z,7.05
2017-12-12T17:02:14.188Z,6.65
2017-12-12T17:04:42.493Z,5.65
2017-12-12T17:07:14.177Z,9.10
2017-12-12T17:09:42.502Z,11.38
2017-12-12T17:12:13.877Z,14.32
2017-12-12T17:14:42.357Z,19.30
2017-12-12T17:17:14.607Z,13.88
2017-12-12T17:19:42.901Z,11.18
2017-12-12T17:22:14.890Z,12.77
2017-12-12T17:24:43.186Z,13.35
2017-12-12T17:27:15.120Z,14.98
2017-12-12T17:29:43.479Z,10.90
2017-12-12T17:32:14.826Z,7.60
2017-12-12T17:34:43.116Z,6.68
2017-12-12T17:37:17.048Z,7.22
2017-12-12T17:39:45.368Z,6.43
2017-12-12T17:42:14.691Z,6.43
2017-12-12T17:44:42.945Z,6.00
2017-12-12T17:47:14.739Z,6.00
2017-12-12T17:49:43.263Z,7.03
2017-12-12T17:52:15.198Z,6.60
2017-12-12T17:54:43.464Z,7.30
2017-12-12T17:57:15.632Z,6.85
2017-12-12T17:59:43.908Z,7.87
2017-12-12T18:02:14.477Z,7.50
2017-12-12T18:04:43.596Z,7.45
2017-12-12T18:07:15.607Z,7.85
2017-12-12T18:09:43.996Z,7.18
2017-12-12T18:12:14.089Z,6.65
2017-12-12T18:14:42.364Z,6.45
2017-12-12T18:17:13.733Z,6.68
2017-12-12T18:19:42.589Z,8.95
2017-12-12T18:22:13.939Z,8.20
2017-12-12T18:24:42.223Z,8.10
2017-12-12T18:27:17.434Z,7.30
2017-12-12T18:29:46.339Z,7.20
2017-12-12T18:32:14.626Z,7.55
2017-12-12T18:34:42.908Z,8.48
2017-12-12T18:37:14.640Z,7.65
2017-12-12T18:39:42.935Z,7.12
2017-12-12T18:42:14.488Z,7.95
2017-12-12T18:44:43.023Z,7.78
2017-12-12T18:47:14.965Z,7.43
2017-12-12T18:49:43.278Z,6.95
2017-12-12T18:52:14.665Z,7.87
2017-12-12T18:54:42.984Z,7.50
2017-12-12T18:57:14.780Z,7.40
2017-12-12T18:59:43.173Z,7.25
2017-12-12T19:02:14.325Z,7.28
2017-12-12T19:04:42.574Z,7.00
2017-12-12T19:07:14.047Z,10.15
2017-12-12T19:09:42.324Z,7.50
2017-12-12T19:12:13.880Z,7.25
2017-12-12T19:14:42.230Z,7.00
2017-12-12T19:17:13.680Z,6.70
2017-12-12T19:19:41.971Z,7.07
2017-12-12T19:22:16.905Z,7.22
2017-12-12T19:24:45.186Z,7.05
2017-12-12T19:27:14.479Z,6.37
2017-12-12T19:29:42.760Z,6.10
2017-12-12T19:32:13.998Z,5.70
2017-12-12T19:34:42.269Z,6.22
2017-12-12T19:37:13.705Z,8.85
2017-12-12T19:39:41.978Z,6.00
2017-12-12T19:42:13.248Z,6.15
2017-12-12T19:44:41.528Z,6.00
2017-12-12T19:47:16.177Z,5.93
2017-12-12T19:49:44.453Z,5.35
2017-12-12T19:52:14.315Z,5.57
2017-12-12T19:54:42.594Z,6.00
2017-12-12T19:57:14.507Z,5.80
2017-12-12T19:59:42.829Z,6.30
2017-12-12T20:02:14.226Z,5.70
2017-12-12T20:04:42.923Z,6.28
2017-12-12T20:07:14.136Z,6.45
2017-12-12T20:09:42.403Z,6.10
2017-12-12T20:12:17.643Z,6.30
2017-12-12T20:14:45.909Z,6.07
2017-12-12T20:17:14.198Z,6.25
2017-12-12T20:19:42.502Z,5.68
2017-12-12T20:22:13.794Z,6.70
2017-12-12T20:24:42.128Z,12.77
2017-12-12T20:27:13.545Z,7.28
2017-12-12T20:29:41.835Z,5.97
2017-12-12T20:32:17.297Z,4.95
2017-12-12T20:34:45.584Z,5.05
2017-12-12T20:37:13.883Z,5.40
2017-12-12T20:39:42.177Z,7.55
2017-12-12T20:42:13.715Z,4.68
2017-12-12T20:44:41.978Z,4.70
2017-12-12T20:47:16.337Z,4.68
2017-12-12T20:49:44.644Z,4.93
2017-12-12T20:52:14.280Z,5.47
2017-12-12T20:54:42.599Z,5.37
2017-12-12T20:57:16.540Z,5.20
2017-12-12T20:59:44.805Z,5.60
2017-12-12T21:02:14.824Z,5.60
2017-12-12T21:04:43.119Z,5.90
2017-12-12T21:07:20.410Z,5.72
2017-12-12T21:09:48.759Z,5.43
2017-12-12T21:12:17.054Z,4.90
2017-12-12T21:14:45.490Z,5.15
2017-12-12T21:17:14.716Z,5.15
2017-12-12T21:19:43.048Z,5.32
2017-12-12T21:22:15.288Z,5.00
2017-12-12T21:24:43.563Z,4.68
2017-12-12T21:27:14.888Z,4.93
2017-12-12T21:29:43.170Z,5.37
2017-12-12T21:32:14.696Z,5.80
2017-12-12T21:34:42.984Z,4.93
2017-12-12T21:37:15.022Z,4.70
2017-12-12T21:39:43.306Z,4.90
2017-12-12T21:42:16.045Z,5.00
2017-12-12T21:44:44.340Z,6.00
2017-12-12T21:47:14.032Z,4.82
2017-12-12T21:49:42.328Z,5.25
2017-12-12T21:52:13.943Z,5.10
2017-12-12T21:54:42.299Z,5.25
2017-12-12T21:57:17.537Z,5.10
2017-12-12T21:59:45.793Z,5.28
2017-12-12T22:02:14.730Z,5.50
2017-12-12T22:04:43.002Z,5.57
2017-12-12T22:07:14.621Z,5.68
2017-12-12T22:09:42.902Z,5.18
2017-12-12T22:12:15.119Z,5.70
2017-12-12T22:14:43.389Z,5.50
2017-12-12T22:17:15.906Z,5.25
2017-12-12T22:19:44.256Z,5.40
2017-12-12T22:22:15.777Z,5.87
2017-12-12T22:24:44.063Z,6.15
2017-12-12T22:27:14.102Z,12.20
2017-12-12T22:29:42.372Z,5.80
2017-12-12T22:32:17.394Z,6.15
2017-12-12T22:34:45.684Z,5.75
2017-12-12T22:37:14.152Z,5.93
2017-12-12T22:39:42.473Z,5.57
2017-12-12T22:42:16.502Z,6.32
2017-12-12T22:44:44.810Z,5.85
2017-12-12T22:47:14.096Z,6.40
2017-12-12T22:49:42.545Z,6.10
2017-12-12T22:52:13.986Z,7.18
2017-12-12T22:54:42.268Z,5.87
2017-12-12T22:57:13.921Z,5.87
2017-12-12T22:59:42.225Z,6.20
2017-12-12T23:02:13.770Z,5.90
2017-12-12T23:04:42.048Z,5.78
2017-12-12T23:07:13.657Z,5.57
2017-12-12T23:09:42.020Z,6.00
2017-12-12T23:12:13.791Z,5.80
2017-12-12T23:14:42.166Z,5.97
2017-12-12T23:17:14.299Z,5.47
2017-12-12T23:19:42.592Z,5.60
2017-12-12T23:22:16.588Z,5.93
2017-12-12T23:24:44.875Z,5.32
2017-12-12T23:27:14.277Z,5.50
2017-12-12T23:29:42.826Z,5.35
2017-12-12T23:32:14.734Z,6.10
2017-12-12T23:34:43.030Z,5.78
2017-12-12T23:37:14.529Z,5.62
2017-12-12T23:39:42.842Z,5.40
2017-12-12T23:42:14.061Z,5.70
2017-12-12T23:44:42.332Z,5.95
2017-12-12T23:47:13.986Z,5.90
2017-12-12T23:49:42.424Z,6.03
2017-12-12T23:52:17.460Z,5.45
2017-12-12T23:54:45.745Z,5.95
2017-12-12T23:57:14.929Z,6.57
2017-12-12T23:59:43.530Z,6.40
